createdAt,value
2017-09-11T14:57:32.572Z,21.8
2017-09-11T14:58:03.484Z,21.8
2017-09-11T14:59:03.758Z,21.9
2017-09-11T15:00:03.356Z,21.9
2017-09-11T15:01:03.604Z,21.9
2017-09-11T15:02:04.463Z,21.9
2017-09-11T15:06:43.896Z,24
2017-09-11T15:07:03.538Z,24.3
2017-09-11T15:07:40.639Z,24.8
2017-09-11T15:08:03.593Z,25.1
2017-09-11T15:09:03.311Z,25
2017-09-11T15:10:04.456Z,24.8
2017-09-11T15:11:03.282Z,24.6
2017-09-11T15:12:04.630Z,24.4
2017-09-11T15:13:36.015Z,24.4
2017-09-11T15:14:03.826Z,24.4
2017-09-11T15:15:04.152Z,24.3
2017-09-11T15:16:04.656Z,24.3
2017-09-11T15:17:04.001Z,24.4
2017-09-11T15:18:03.332Z,24.2
2017-09-11T15:19:04.131Z,24.2
2017-09-11T15:20:03.598Z,24.3
2017-09-11T15:21:03.852Z,24.2
2017-09-11T15:22:03.246Z,24.1
2017-09-11T15:23:03.498Z,24.2
2017-09-11T15:24:04.725Z,24.2
2017-09-11T15:25:04.061Z,24.2
2017-09-11T15:26:04.351Z,24.3
2017-09-11T15:27:03.913Z,24.2
2017-09-11T15:28:03.459Z,23.9
2017-09-11T15:29:04.601Z,23
2017-09-11T15:30:04.585Z,22.6
2017-09-11T15:31:03.286Z,22.4
2017-09-11T15:32:03.967Z,22.3
2017-09-11T15:33:03.617Z,22.2
2017-09-11T15:34:04.110Z,22.1
2017-09-11T15:35:03.624Z,22.1
2017-09-11T15:36:03.865Z,22.1
2017-09-11T15:37:03.266Z,22
2017-09-11T15:38:04.312Z,22
2017-09-11T15:39:04.520Z,22
2017-09-11T15:40:05.649Z,22
2017-09-11T15:41:03.459Z,22
2017-09-11T15:42:04.633Z,22
2017-09-11T15:43:08.520Z,22
2017-09-11T15:44:08.237Z,22
2017-09-11T15:45:04.458Z,22
2017-09-11T15:46:04.107Z,22
2017-09-11T15:47:04.735Z,22.1
2017-09-11T15:48:03.311Z,22.1
2017-09-11T15:49:04.022Z,22.1
2017-09-11T15:50:04.110Z,22.1
2017-09-11T15:51:04.000Z,22.1
2017-09-11T15:52:04.291Z,22.1
2017-09-11T15:53:04.497Z,22.1
2017-09-11T15:54:03.371Z,22
2017-09-11T15:55:03.203Z,22.1
2017-09-11T15:56:04.829Z,22
2017-09-11T15:57:04.256Z,22
2017-09-11T15:58:04.641Z,22
2017-09-11T15:59:04.272Z,22
2017-09-11T16:00:04.549Z,22
2017-09-11T16:01:03.128Z,21.9
2017-09-11T16:02:02.900Z,21.9
2017-09-11T16:03:07.725Z,21.9
2017-09-11T16:04:03.168Z,21.8
2017-09-11T16:06:03.020Z,21.8
2017-09-11T16:07:03.479Z,21.8
2017-09-11T16:08:02.905Z,21.7
2017-09-11T16:09:03.027Z,21.7
2017-09-11T16:10:03.373Z,21.7
2017-09-11T16:13:03.202Z,21.6
2017-09-11T16:14:03.116Z,21.5
2017-09-11T16:15:02.791Z,21.5
2017-09-11T16:16:02.951Z,21.5
2017-09-11T16:17:04.148Z,21.5
2017-09-11T16:18:02.901Z,21.5
2017-09-11T16:19:03.328Z,21.4
2017-09-11T16:20:03.689Z,21.4
2017-09-11T16:21:03.193Z,21.4
2017-09-11T16:22:02.819Z,21.3
2017-09-11T16:23:03.975Z,21.3
2017-09-11T16:24:03.554Z,21.3
2017-09-11T16:25:04.668Z,21.3
2017-09-11T16:26:05.091Z,21.3
2017-09-11T16:27:07.034Z,21.3
2017-09-11T16:28:04.085Z,21.3
2017-09-11T16:29:04.753Z,21.4
2017-09-11T16:30:09.266Z,21.4
2017-09-11T16:31:04.212Z,21.5
